Stony Knoll, North Carolina
Current Conditions -  °F | °C
As of 5:15 PM on Monday 20 Oct 2014 (Local Time) from KMWK Reporting Station
Clear Clear  
Wind Chill: 67°   Ceiling: Unl
Heat Index: 67°   Visibility: 10mi
Dew Point: 50°   Wind: 5mph
Humidity: 53%   Direction: 220°SW
Pressure: 29.99"   Gusts: NA
Location:  36.3461°N, 80.7011°W
Report Text: KMWK 202115Z AUTO 22004KT 10SM CLR 20/10 A2999 RMK AO2 T01950098
Loading
Personal Weather Stations






























Interactive Weather Map
Tropical Storm Tracking
New forecast layout! Learn more

10-Day Weather Forecast

Advertisements
Track Severe Weather on mobile